Terminal Aerodrome Forecast
Issued by NWS

Home | Current Version | Previous Version | Text Only | Print | Product List | Glossary On
Versions: 1 2 3 4 5 6 7 8 9 10 11 12 13 14 15 16 17 18 19 20 21 22 23 24
000
FTUS43 KDLH 251734
TAFHYR
TAF
KHYR 251734Z 2518/2618 29007G15KT 3SM -RA BR VCTS SCT025CB OVC040
     FM251900 29009G17KT 5SM -RA BR SCT030 OVC050
     FM252000 29009G17KT P6SM -SHRA BKN030
     FM252200 31009G17KT P6SM -SHRA BKN040
     FM260100 32005KT P6SM SCT070=

USA.gov is the U.S. government's official web portal to all federal, state and local government web resources and services.